sensor_id;sensor_type;location;lat;lon;timestamp;temperature;humidity
69533;DHT22;56729;52.036;5.332;2023-01-15T00:00:09;7.50;99.90
69533;DHT22;56729;52.036;5.332;2023-01-15T00:02:26;7.50;99.90
69533;DHT22;56729;52.036;5.332;2023-01-15T00:03:29;7.50;99.90
69533;DHT22;56729;52.036;5.332;2023-01-15T00:04:32;7.50;99.90
69533;DHT22;56729;52.036;5.332;2023-01-15T00:05:36;7.50;99.90
69533;DHT22;56729;52.036;5.332;2023-01-15T00:06:40;7.50;99.90
69533;DHT22;56729;52.036;5.332;2023-01-15T00:07:42;7.50;99.90
69533;DHT22;56729;52.036;5.332;2023-01-15T00:08:45;7.50;99.90
69533;DHT22;56729;52.036;5.332;2023-01-15T00:09:48;7.50;99.90
69533;DHT22;56729;52.036;5.332;2023-01-15T00:10:50;7.50;99.90
69533;DHT22;56729;52.036;5.332;2023-01-15T00:11:52;7.50;99.90
69533;DHT22;56729;52.036;5.332;2023-01-15T00:12:55;7.50;99.90
69533;DHT22;56729;52.036;5.332;2023-01-15T00:13:59;7.50;99.90
69533;DHT22;56729;52.036;5.332;2023-01-15T00:15:01;7.50;99.90
69533;DHT22;56729;52.036;5.332;2023-01-15T00:16:08;7.50;99.90
69533;DHT22;56729;52.036;5.332;2023-01-15T00:17:10;7.50;99.90
69533;DHT22;56729;52.036;5.332;2023-01-15T00:18:12;7.50;99.90
69533;DHT22;56729;52.036;5.332;2023-01-15T00:19:14;7.50;99.90
69533;DHT22;56729;52.036;5.332;2023-01-15T00:20:18;7.50;99.90
69533;DHT22;56729;52.036;5.332;2023-01-15T00:21:21;7.50;99.90
69533;DHT22;56729;52.036;5.332;2023-01-15T00:22:25;7.50;99.90
69533;DHT22;56729;52.036;5.332;2023-01-15T00:23:27;7.50;99.90
69533;DHT22;56729;52.036;5.332;2023-01-15T00:24:48;7.50;99.90
69533;DHT22;56729;52.036;5.332;2023-01-15T00:26:12;7.50;99.90
69533;DHT22;56729;52.036;5.332;2023-01-15T00:27:34;7.50;99.90
69533;DHT22;56729;52.036;5.332;2023-01-15T00:28:39;7.50;99.90
69533;DHT22;56729;52.036;5.332;2023-01-15T00:29:43;7.50;99.90
69533;DHT22;56729;52.036;5.332;2023-01-15T00:30:45;7.50;99.90
69533;DHT22;56729;52.036;5.332;2023-01-15T00:32:00;7.50;99.90
69533;DHT22;56729;52.036;5.332;2023-01-15T00:33:04;7.50;99.90
69533;DHT22;56729;52.036;5.332;2023-01-15T00:34:05;7.50;99.90
69533;DHT22;56729;52.036;5.332;2023-01-15T00:35:18;7.50;99.90
69533;DHT22;56729;52.036;5.332;2023-01-15T00:36:21;7.50;99.90
69533;DHT22;56729;52.036;5.332;2023-01-15T00:37:23;7.50;99.90
69533;DHT22;56729;52.036;5.332;2023-01-15T00:38:25;7.50;99.90
69533;DHT22;56729;52.036;5.332;2023-01-15T00:39:27;7.50;99.90
69533;DHT22;56729;52.036;5.332;2023-01-15T00:40:29;7.50;99.90
69533;DHT22;56729;52.036;5.332;2023-01-15T00:41:31;7.60;99.90
69533;DHT22;56729;52.036;5.332;2023-01-15T00:42:33;7.60;99.90
69533;DHT22;56729;52.036;5.332;2023-01-15T00:43:37;7.60;99.90
69533;DHT22;56729;52.036;5.332;2023-01-15T00:44:40;7.60;99.90
69533;DHT22;56729;52.036;5.332;2023-01-15T00:45:43;7.60;99.90
69533;DHT22;56729;52.036;5.332;2023-01-15T00:46:45;7.60;99.90
69533;DHT22;56729;52.036;5.332;2023-01-15T00:47:46;7.60;99.90
69533;DHT22;56729;52.036;5.332;2023-01-15T00:48:51;7.60;99.90
69533;DHT22;56729;52.036;5.332;2023-01-15T00:49:53;7.60;99.90
69533;DHT22;56729;52.036;5.332;2023-01-15T00:50:55;7.60;99.90
69533;DHT22;56729;52.036;5.332;2023-01-15T00:51:57;7.60;99.90
69533;DHT22;56729;52.036;5.332;2023-01-15T00:52:59;7.60;99.90
69533;DHT22;56729;52.036;5.332;2023-01-15T00:54:01;7.60;99.90
69533;DHT22;56729;52.036;5.332;2023-01-15T00:55:04;7.60;99.90
69533;DHT22;56729;52.036;5.332;2023-01-15T00:56:06;7.60;99.90
69533;DHT22;56729;52.036;5.332;2023-01-15T00:57:08;7.60;99.90
69533;DHT22;56729;52.036;5.332;2023-01-15T00:58:12;7.60;99.90
69533;DHT22;56729;52.036;5.332;2023-01-15T00:59:13;7.60;99.90
69533;DHT22;56729;52.036;5.332;2023-01-15T01:00:16;7.60;99.90
69533;DHT22;56729;52.036;5.332;2023-01-15T01:01:20;7.60;99.90
69533;DHT22;56729;52.036;5.332;2023-01-15T01:02:23;7.60;99.90
69533;DHT22;56729;52.036;5.332;2023-01-15T01:03:26;7.70;99.90
69533;DHT22;56729;52.036;5.332;2023-01-15T01:04:28;7.60;99.90
69533;DHT22;56729;52.036;5.332;2023-01-15T01:05:30;7.60;99.90
69533;DHT22;56729;52.036;5.332;2023-01-15T01:06:33;7.70;99.90
69533;DHT22;56729;52.036;5.332;2023-01-15T01:07:36;7.60;99.90
69533;DHT22;56729;52.036;5.332;2023-01-15T01:08:38;7.60;99.90
69533;DHT22;56729;52.036;5.332;2023-01-15T01:09:40;7.60;99.90
69533;DHT22;56729;52.036;5.332;2023-01-15T01:10:43;7.60;99.90
69533;DHT22;56729;52.036;5.332;2023-01-15T01:11:47;7.60;99.90
69533;DHT22;56729;52.036;5.332;2023-01-15T01:12:49;7.60;99.90
69533;DHT22;56729;52.036;5.332;2023-01-15T01:13:55;7.60;99.90
69533;DHT22;56729;52.036;5.332;2023-01-15T01:15:14;7.60;99.90
69533;DHT22;56729;52.036;5.332;2023-01-15T01:16:31;7.60;99.90
69533;DHT22;56729;52.036;5.332;2023-01-15T01:17:37;7.60;99.90
69533;DHT22;56729;52.036;5.332;2023-01-15T01:18:39;7.60;99.90
69533;DHT22;56729;52.036;5.332;2023-01-15T01:19:41;7.60;99.90
69533;DHT22;56729;52.036;5.332;2023-01-15T01:20:43;7.60;99.90
69533;DHT22;56729;52.036;5.332;2023-01-15T01:21:46;7.60;99.90
69533;DHT22;56729;52.036;5.332;2023-01-15T01:22:48;7.60;99.90
69533;DHT22;56729;52.036;5.332;2023-01-15T01:23:50;7.60;99.90
69533;DHT22;56729;52.036;5.332;2023-01-15T01:24:52;7.60;99.90
69533;DHT22;56729;52.036;5.332;2023-01-15T01:25:57;7.60;99.90
69533;DHT22;56729;52.036;5.332;2023-01-15T01:26:59;7.60;99.90
69533;DHT22;56729;52.036;5.332;2023-01-15T01:28:02;7.60;99.90
69533;DHT22;56729;52.036;5.332;2023-01-15T01:29:04;7.60;99.90
69533;DHT22;56729;52.036;5.332;2023-01-15T01:30:07;7.60;99.90
69533;DHT22;56729;52.036;5.332;2023-01-15T01:31:09;7.60;99.90
69533;DHT22;56729;52.036;5.332;2023-01-15T01:32:12;7.60;99.90
69533;DHT22;56729;52.036;5.332;2023-01-15T01:33:14;7.60;99.90
69533;DHT22;56729;52.036;5.332;2023-01-15T01:34:16;7.60;99.90
69533;DHT22;56729;52.036;5.332;2023-01-15T01:35:18;7.50;99.90
69533;DHT22;56729;52.036;5.332;2023-01-15T01:36:26;7.60;99.90
69533;DHT22;56729;52.036;5.332;2023-01-15T01:37:28;7.50;99.90
69533;DHT22;56729;52.036;5.332;2023-01-15T01:38:29;7.60;99.90
69533;DHT22;56729;52.036;5.332;2023-01-15T01:39:31;7.60;99.90
69533;DHT22;56729;52.036;5.332;2023-01-15T01:40:37;7.60;99.90
69533;DHT22;56729;52.036;5.332;2023-01-15T01:41:40;7.50;99.90
69533;DHT22;56729;52.036;5.332;2023-01-15T01:42:42;7.50;99.90
69533;DHT22;56729;52.036;5.332;2023-01-15T01:43:57;7.60;99.90
69533;DHT22;56729;52.036;5.332;2023-01-15T01:45:05;7.60;99.90
69533;DHT22;56729;52.036;5.332;2023-01-15T01:46:08;7.60;99.90
69533;DHT22;56729;52.036;5.332;2023-01-15T01:47:14;7.50;99.90
69533;DHT22;56729;52.036;5.332;2023-01-15T01:48:19;7.50;99.90
69533;DHT22;56729;52.036;5.332;2023-01-15T01:49:22;7.50;99.90
69533;DHT22;56729;52.036;5.332;2023-01-15T01:50:27;7.50;99.90
69533;DHT22;56729;52.036;5.332;2023-01-15T01:51:36;7.50;99.90
69533;DHT22;56729;52.036;5.332;2023-01-15T01:52:56;7.50;99.90
69533;DHT22;56729;52.036;5.332;2023-01-15T01:54:01;7.60;99.90
69533;DHT22;56729;52.036;5.332;2023-01-15T01:55:05;7.50;99.90
69533;DHT22;56729;52.036;5.332;2023-01-15T01:56:09;7.50;99.90
69533;DHT22;56729;52.036;5.332;2023-01-15T01:57:12;7.50;99.90
69533;DHT22;56729;52.036;5.332;2023-01-15T01:58:17;7.50;99.90
69533;DHT22;56729;52.036;5.332;2023-01-15T01:59:21;7.50;99.90
69533;DHT22;56729;52.036;5.332;2023-01-15T02:00:24;7.50;99.90
69533;DHT22;56729;52.036;5.332;2023-01-15T02:01:26;7.50;99.90
69533;DHT22;56729;52.036;5.332;2023-01-15T02:02:28;7.50;99.90
69533;DHT22;56729;52.036;5.332;2023-01-15T02:03:34;7.50;99.90
69533;DHT22;56729;52.036;5.332;2023-01-15T02:04:38;7.50;99.90
69533;DHT22;56729;52.036;5.332;2023-01-15T02:05:46;7.50;99.90
69533;DHT22;56729;52.036;5.332;2023-01-15T02:06:50;7.50;99.90
69533;DHT22;56729;52.036;5.332;2023-01-15T02:07:53;7.50;99.90
69533;DHT22;56729;52.036;5.332;2023-01-15T02:08:55;7.50;99.90
69533;DHT22;56729;52.036;5.332;2023-01-15T02:09:57;7.50;99.90
69533;DHT22;56729;52.036;5.332;2023-01-15T02:10:58;7.50;99.90
69533;DHT22;56729;52.036;5.332;2023-01-15T02:12:21;7.50;99.90
69533;DHT22;56729;52.036;5.332;2023-01-15T02:13:36;7.50;99.90
69533;DHT22;56729;52.036;5.332;2023-01-15T02:14:54;7.50;99.90
69533;DHT22;56729;52.036;5.332;2023-01-15T02:16:13;7.40;99.90
69533;DHT22;56729;52.036;5.332;2023-01-15T02:17:22;7.40;99.90
69533;DHT22;56729;52.036;5.332;2023-01-15T02:18:35;7.40;99.90
69533;DHT22;56729;52.036;5.332;2023-01-15T02:21:06;7.40;99.90
69533;DHT22;56729;52.036;5.332;2023-01-15T02:22:24;7.40;99.90
69533;DHT22;56729;52.036;5.332;2023-01-15T02:27:18;7.40;99.90
69533;DHT22;56729;52.036;5.332;2023-01-15T02:28:47;7.40;99.90
69533;DHT22;56729;52.036;5.332;2023-01-15T02:30:11;7.40;99.90
69533;DHT22;56729;52.036;5.332;2023-01-15T02:31:32;7.40;99.90
69533;DHT22;56729;52.036;5.332;2023-01-15T02:32:50;7.40;99.90
69533;DHT22;56729;52.036;5.332;2023-01-15T02:33:58;7.40;99.90
69533;DHT22;56729;52.036;5.332;2023-01-15T02:35:27;7.40;99.90
69533;DHT22;56729;52.036;5.332;2023-01-15T02:36:33;7.40;99.90
69533;DHT22;56729;52.036;5.332;2023-01-15T02:37:41;7.40;99.90
69533;DHT22;56729;52.036;5.332;2023-01-15T02:38:52;7.40;99.90
69533;DHT22;56729;52.036;5.332;2023-01-15T02:39:58;7.40;99.90
69533;DHT22;56729;52.036;5.332;2023-01-15T02:41:07;7.40;99.90
69533;DHT22;56729;52.036;5.332;2023-01-15T02:42:18;7.40;99.90
69533;DHT22;56729;52.036;5.332;2023-01-15T02:43:23;7.40;99.90
69533;DHT22;56729;52.036;5.332;2023-01-15T02:44:26;7.40;99.90
69533;DHT22;56729;52.036;5.332;2023-01-15T02:45:31;7.40;99.90
69533;DHT22;56729;52.036;5.332;2023-01-15T02:46:40;7.40;99.90
69533;DHT22;56729;52.036;5.332;2023-01-15T02:47:46;7.40;99.90
69533;DHT22;56729;52.036;5.332;2023-01-15T02:48:52;7.40;99.90
69533;DHT22;56729;52.036;5.332;2023-01-15T02:49:59;7.40;99.90
69533;DHT22;56729;52.036;5.332;2023-01-15T02:51:15;7.40;99.90
69533;DHT22;56729;52.036;5.332;2023-01-15T02:52:23;7.30;99.90
69533;DHT22;56729;52.036;5.332;2023-01-15T02:53:29;7.40;99.90
69533;DHT22;56729;52.036;5.332;2023-01-15T02:54:42;7.40;99.90
69533;DHT22;56729;52.036;5.332;2023-01-15T02:55:49;7.40;99.90
69533;DHT22;56729;52.036;5.332;2023-01-15T02:56:56;7.40;99.90
69533;DHT22;56729;52.036;5.332;2023-01-15T02:58:03;7.40;99.90
69533;DHT22;56729;52.036;5.332;2023-01-15T02:59:13;7.40;99.90
69533;DHT22;56729;52.036;5.332;2023-01-15T03:00:18;7.40;99.90
69533;DHT22;56729;52.036;5.332;2023-01-15T03:01:34;7.40;99.90
69533;DHT22;56729;52.036;5.332;2023-01-15T03:02:45;7.40;99.90
69533;DHT22;56729;52.036;5.332;2023-01-15T03:03:55;7.40;99.90
69533;DHT22;56729;52.036;5.332;2023-01-15T03:05:24;7.30;99.90
69533;DHT22;56729;52.036;5.332;2023-01-15T03:06:45;7.40;99.90
69533;DHT22;56729;52.036;5.332;2023-01-15T03:07:52;7.40;99.90
69533;DHT22;56729;52.036;5.332;2023-01-15T03:08:57;7.40;99.90
69533;DHT22;56729;52.036;5.332;2023-01-15T03:09:59;7.30;99.90
69533;DHT22;56729;52.036;5.332;2023-01-15T03:11:10;7.40;99.90
69533;DHT22;56729;52.036;5.332;2023-01-15T03:12:43;7.40;99.90
69533;DHT22;56729;52.036;5.332;2023-01-15T03:14:39;7.40;99.90
69533;DHT22;56729;52.036;5.332;2023-01-15T03:16:00;7.30;99.90
69533;DHT22;56729;52.036;5.332;2023-01-15T03:17:53;7.30;99.90
69533;DHT22;56729;52.036;5.332;2023-01-15T03:19:04;7.30;99.90
69533;DHT22;56729;52.036;5.332;2023-01-15T03:20:21;7.30;99.90
69533;DHT22;56729;52.036;5.332;2023-01-15T03:21:53;7.30;99.90
69533;DHT22;56729;52.036;5.332;2023-01-15T03:23:06;7.30;99.90
69533;DHT22;56729;52.036;5.332;2023-01-15T03:24:15;7.30;99.90
69533;DHT22;56729;52.036;5.332;2023-01-15T03:25:25;7.30;99.90
69533;DHT22;56729;52.036;5.332;2023-01-15T03:26:30;7.30;99.90
69533;DHT22;56729;52.036;5.332;2023-01-15T03:27:32;7.30;99.90
69533;DHT22;56729;52.036;5.332;2023-01-15T03:28:35;7.30;99.90
69533;DHT22;56729;52.036;5.332;2023-01-15T03:29:42;7.30;99.90
69533;DHT22;56729;52.036;5.332;2023-01-15T03:30:47;7.30;99.90
69533;DHT22;56729;52.036;5.332;2023-01-15T03:31:48;7.30;99.90
69533;DHT22;56729;52.036;5.332;2023-01-15T03:32:55;7.30;99.90
69533;DHT22;56729;52.036;5.332;2023-01-15T03:33:58;7.30;99.90
69533;DHT22;56729;52.036;5.332;2023-01-15T03:35:00;7.30;99.90
69533;DHT22;56729;52.036;5.332;2023-01-15T03:36:05;7.20;99.90
69533;DHT22;56729;52.036;5.332;2023-01-15T03:37:21;7.30;99.90
69533;DHT22;56729;52.036;5.332;2023-01-15T03:38:34;7.30;99.90
69533;DHT22;56729;52.036;5.332;2023-01-15T03:39:38;7.30;99.90
69533;DHT22;56729;52.036;5.332;2023-01-15T03:41:14;7.20;99.90
69533;DHT22;56729;52.036;5.332;2023-01-15T03:42:51;7.20;99.90
69533;DHT22;56729;52.036;5.332;2023-01-15T03:45:43;7.20;99.90
69533;DHT22;56729;52.036;5.332;2023-01-15T03:48:58;7.20;99.90
69533;DHT22;56729;52.036;5.332;2023-01-15T03:50:15;7.20;99.90
69533;DHT22;56729;52.036;5.332;2023-01-15T03:51:28;7.20;99.90
69533;DHT22;56729;52.036;5.332;2023-01-15T03:54:12;7.20;99.90
69533;DHT22;56729;52.036;5.332;2023-01-15T03:55:23;7.20;99.90
69533;DHT22;56729;52.036;5.332;2023-01-15T03:56:56;7.20;99.90
69533;DHT22;56729;52.036;5.332;2023-01-15T03:58:17;7.20;99.90
69533;DHT22;56729;52.036;5.332;2023-01-15T03:59:34;7.20;99.90
69533;DHT22;56729;52.036;5.332;2023-01-15T04:00:42;7.20;99.90
69533;DHT22;56729;52.036;5.332;2023-01-15T04:01:46;7.20;99.90
69533;DHT22;56729;52.036;5.332;2023-01-15T04:02:52;7.20;99.90
69533;DHT22;56729;52.036;5.332;2023-01-15T04:03:57;7.20;99.90
69533;DHT22;56729;52.036;5.332;2023-01-15T04:05:00;7.20;99.90
69533;DHT22;56729;52.036;5.332;2023-01-15T04:06:05;7.20;99.90
69533;DHT22;56729;52.036;5.332;2023-01-15T04:07:08;7.20;99.90
69533;DHT22;56729;52.036;5.332;2023-01-15T04:08:11;7.20;99.90
69533;DHT22;56729;52.036;5.332;2023-01-15T04:09:15;7.20;99.90
69533;DHT22;56729;52.036;5.332;2023-01-15T04:10:19;7.20;99.90
69533;DHT22;56729;52.036;5.332;2023-01-15T04:11:25;7.20;99.90
69533;DHT22;56729;52.036;5.332;2023-01-15T04:12:33;7.20;99.90
69533;DHT22;56729;52.036;5.332;2023-01-15T04:13:38;7.20;99.90
69533;DHT22;56729;52.036;5.332;2023-01-15T04:14:50;7.20;99.90
69533;DHT22;56729;52.036;5.332;2023-01-15T04:15:56;7.20;99.90
69533;DHT22;56729;52.036;5.332;2023-01-15T04:16:59;7.10;99.90
69533;DHT22;56729;52.036;5.332;2023-01-15T04:18:02;7.10;99.90
69533;DHT22;56729;52.036;5.332;2023-01-15T04:19:04;7.10;99.90
69533;DHT22;56729;52.036;5.332;2023-01-15T04:20:10;7.10;99.90
69533;DHT22;56729;52.036;5.332;2023-01-15T04:21:15;7.10;99.90
69533;DHT22;56729;52.036;5.332;2023-01-15T04:22:17;7.10;99.90
69533;DHT22;56729;52.036;5.332;2023-01-15T04:23:20;7.10;99.90
69533;DHT22;56729;52.036;5.332;2023-01-15T04:24:21;7.10;99.90
69533;DHT22;56729;52.036;5.332;2023-01-15T04:25:24;7.10;99.90
69533;DHT22;56729;52.036;5.332;2023-01-15T04:26:26;7.10;99.90
69533;DHT22;56729;52.036;5.332;2023-01-15T04:27:28;7.10;99.90
69533;DHT22;56729;52.036;5.332;2023-01-15T04:28:31;7.10;99.90
69533;DHT22;56729;52.036;5.332;2023-01-15T04:29:33;7.10;99.90
69533;DHT22;56729;52.036;5.332;2023-01-15T04:30:36;7.10;99.90
69533;DHT22;56729;52.036;5.332;2023-01-15T04:31:38;7.00;99.90
69533;DHT22;56729;52.036;5.332;2023-01-15T04:32:40;7.00;99.90
69533;DHT22;56729;52.036;5.332;2023-01-15T04:33:42;7.00;99.90
69533;DHT22;56729;52.036;5.332;2023-01-15T04:34:44;7.00;99.90
69533;DHT22;56729;52.036;5.332;2023-01-15T04:35:46;7.00;99.90
69533;DHT22;56729;52.036;5.332;2023-01-15T04:36:48;7.00;99.90
69533;DHT22;56729;52.036;5.332;2023-01-15T04:37:56;7.00;99.90
69533;DHT22;56729;52.036;5.332;2023-01-15T04:38:58;7.00;99.90
69533;DHT22;56729;52.036;5.332;2023-01-15T04:40:00;7.00;99.90
69533;DHT22;56729;52.036;5.332;2023-01-15T04:41:03;7.00;99.90
69533;DHT22;56729;52.036;5.332;2023-01-15T04:42:24;7.10;99.90
69533;DHT22;56729;52.036;5.332;2023-01-15T04:43:44;7.10;99.90
69533;DHT22;56729;52.036;5.332;2023-01-15T04:45:05;7.00;99.90
69533;DHT22;56729;52.036;5.332;2023-01-15T04:46:08;7.00;99.90
69533;DHT22;56729;52.036;5.332;2023-01-15T04:47:10;7.00;99.90
69533;DHT22;56729;52.036;5.332;2023-01-15T04:48:12;7.00;99.90
69533;DHT22;56729;52.036;5.332;2023-01-15T04:49:16;7.10;99.90
69533;DHT22;56729;52.036;5.332;2023-01-15T04:50:18;7.10;99.90
69533;DHT22;56729;52.036;5.332;2023-01-15T04:51:20;7.10;99.90
69533;DHT22;56729;52.036;5.332;2023-01-15T04:52:21;7.10;99.90
69533;DHT22;56729;52.036;5.332;2023-01-15T04:53:25;7.10;99.90
69533;DHT22;56729;52.036;5.332;2023-01-15T04:54:28;7.10;99.90
69533;DHT22;56729;52.036;5.332;2023-01-15T04:55:30;7.10;99.90
69533;DHT22;56729;52.036;5.332;2023-01-15T04:56:37;7.10;99.90
69533;DHT22;56729;52.036;5.332;2023-01-15T04:57:39;7.10;99.90
69533;DHT22;56729;52.036;5.332;2023-01-15T04:58:41;7.10;99.90
69533;DHT22;56729;52.036;5.332;2023-01-15T04:59:43;7.10;99.90
69533;DHT22;56729;52.036;5.332;2023-01-15T05:00:45;7.10;99.90
69533;DHT22;56729;52.036;5.332;2023-01-15T05:01:47;7.10;99.90
69533;DHT22;56729;52.036;5.332;2023-01-15T05:03:04;7.10;99.90
69533;DHT22;56729;52.036;5.332;2023-01-15T05:04:05;7.10;99.90
69533;DHT22;56729;52.036;5.332;2023-01-15T05:05:08;7.10;99.90
69533;DHT22;56729;52.036;5.332;2023-01-15T05:06:10;7.10;99.90
69533;DHT22;56729;52.036;5.332;2023-01-15T05:07:13;7.10;99.90
69533;DHT22;56729;52.036;5.332;2023-01-15T05:08:15;7.10;99.90
69533;DHT22;56729;52.036;5.332;2023-01-15T05:09:17;7.10;99.90
69533;DHT22;56729;52.036;5.332;2023-01-15T05:10:19;7.10;99.90
69533;DHT22;56729;52.036;5.332;2023-01-15T05:11:21;7.10;99.90
69533;DHT22;56729;52.036;5.332;2023-01-15T05:12:22;7.10;99.90
69533;DHT22;56729;52.036;5.332;2023-01-15T05:13:25;7.10;99.90
69533;DHT22;56729;52.036;5.332;2023-01-15T05:14:27;7.10;99.90
69533;DHT22;56729;52.036;5.332;2023-01-15T05:15:29;7.10;99.90
69533;DHT22;56729;52.036;5.332;2023-01-15T05:16:31;7.10;99.90
69533;DHT22;56729;52.036;5.332;2023-01-15T05:17:33;7.10;99.90
69533;DHT22;56729;52.036;5.332;2023-01-15T05:18:35;7.10;99.90
69533;DHT22;56729;52.036;5.332;2023-01-15T05:19:38;7.10;99.90
69533;DHT22;56729;52.036;5.332;2023-01-15T05:20:40;7.20;99.90
69533;DHT22;56729;52.036;5.332;2023-01-15T05:21:44;7.20;99.90
69533;DHT22;56729;52.036;5.332;2023-01-15T05:22:46;7.10;99.90
69533;DHT22;56729;52.036;5.332;2023-01-15T05:23:54;7.20;99.90
69533;DHT22;56729;52.036;5.332;2023-01-15T05:24:57;7.10;99.90
69533;DHT22;56729;52.036;5.332;2023-01-15T05:26:02;7.10;99.90
69533;DHT22;56729;52.036;5.332;2023-01-15T05:27:05;7.10;99.90
69533;DHT22;56729;52.036;5.332;2023-01-15T05:28:07;7.10;99.90
69533;DHT22;56729;52.036;5.332;2023-01-15T05:29:09;7.20;99.90
69533;DHT22;56729;52.036;5.332;2023-01-15T05:30:12;7.20;99.90
69533;DHT22;56729;52.036;5.332;2023-01-15T05:31:17;7.20;99.90
69533;DHT22;56729;52.036;5.332;2023-01-15T05:32:20;7.20;99.90
69533;DHT22;56729;52.036;5.332;2023-01-15T05:33:23;7.10;99.90
69533;DHT22;56729;52.036;5.332;2023-01-15T05:34:25;7.10;99.90
69533;DHT22;56729;52.036;5.332;2023-01-15T05:35:27;7.10;99.90
69533;DHT22;56729;52.036;5.332;2023-01-15T05:36:30;7.10;99.90
69533;DHT22;56729;52.036;5.332;2023-01-15T05:37:32;7.10;99.90
69533;DHT22;56729;52.036;5.332;2023-01-15T05:38:35;7.10;99.90
69533;DHT22;56729;52.036;5.332;2023-01-15T05:39:37;7.10;99.90
69533;DHT22;56729;52.036;5.332;2023-01-15T05:40:39;7.10;99.90
69533;DHT22;56729;52.036;5.332;2023-01-15T05:41:41;7.10;99.90
69533;DHT22;56729;52.036;5.332;2023-01-15T05:42:52;7.10;99.90
69533;DHT22;56729;52.036;5.332;2023-01-15T05:43:56;7.10;99.90
69533;DHT22;56729;52.036;5.332;2023-01-15T05:44:59;7.10;99.90
69533;DHT22;56729;52.036;5.332;2023-01-15T05:46:01;7.10;99.90
69533;DHT22;56729;52.036;5.332;2023-01-15T05:47:04;7.10;99.90
69533;DHT22;56729;52.036;5.332;2023-01-15T05:48:08;7.10;99.90
69533;DHT22;56729;52.036;5.332;2023-01-15T05:49:13;7.10;99.90
69533;DHT22;56729;52.036;5.332;2023-01-15T05:50:15;7.20;99.90
69533;DHT22;56729;52.036;5.332;2023-01-15T05:51:17;7.20;99.90
69533;DHT22;56729;52.036;5.332;2023-01-15T05:52:19;7.10;99.90
69533;DHT22;56729;52.036;5.332;2023-01-15T05:53:21;7.20;99.90
69533;DHT22;56729;52.036;5.332;2023-01-15T05:54:32;7.20;99.90
69533;DHT22;56729;52.036;5.332;2023-01-15T05:55:35;7.20;99.90
69533;DHT22;56729;52.036;5.332;2023-01-15T05:56:37;7.10;99.90
69533;DHT22;56729;52.036;5.332;2023-01-15T05:57:39;7.20;99.90
69533;DHT22;56729;52.036;5.332;2023-01-15T05:58:41;7.10;99.90
69533;DHT22;56729;52.036;5.332;2023-01-15T05:59:43;7.20;99.90
69533;DHT22;56729;52.036;5.332;2023-01-15T06:00:46;7.10;99.90
69533;DHT22;56729;52.036;5.332;2023-01-15T06:01:48;7.10;99.90
69533;DHT22;56729;52.036;5.332;2023-01-15T06:02:50;7.10;99.90
69533;DHT22;56729;52.036;5.332;2023-01-15T06:03:52;7.10;99.90
69533;DHT22;56729;52.036;5.332;2023-01-15T06:04:56;7.10;99.90
69533;DHT22;56729;52.036;5.332;2023-01-15T06:05:58;7.00;99.90
69533;DHT22;56729;52.036;5.332;2023-01-15T06:07:00;7.00;99.90
69533;DHT22;56729;52.036;5.332;2023-01-15T06:08:01;7.00;99.90
69533;DHT22;56729;52.036;5.332;2023-01-15T06:09:03;7.00;99.90
69533;DHT22;56729;52.036;5.332;2023-01-15T06:10:06;7.00;99.90
69533;DHT22;56729;52.036;5.332;2023-01-15T06:11:08;6.90;99.90
69533;DHT22;56729;52.036;5.332;2023-01-15T06:12:11;6.90;99.90
69533;DHT22;56729;52.036;5.332;2023-01-15T06:13:14;6.90;99.90
69533;DHT22;56729;52.036;5.332;2023-01-15T06:14:16;6.90;99.90
69533;DHT22;56729;52.036;5.332;2023-01-15T06:15:19;6.90;99.90
69533;DHT22;56729;52.036;5.332;2023-01-15T06:16:21;6.90;99.90
69533;DHT22;56729;52.036;5.332;2023-01-15T06:17:23;6.90;99.90
69533;DHT22;56729;52.036;5.332;2023-01-15T06:18:26;6.90;99.90
69533;DHT22;56729;52.036;5.332;2023-01-15T06:19:28;6.90;99.90
69533;DHT22;56729;52.036;5.332;2023-01-15T06:20:30;6.90;99.90
69533;DHT22;56729;52.036;5.332;2023-01-15T06:21:34;6.80;99.90
69533;DHT22;56729;52.036;5.332;2023-01-15T06:22:36;6.80;99.90
69533;DHT22;56729;52.036;5.332;2023-01-15T06:23:41;6.80;99.90
69533;DHT22;56729;52.036;5.332;2023-01-15T06:24:43;6.80;99.90
69533;DHT22;56729;52.036;5.332;2023-01-15T06:25:46;6.80;99.90
69533;DHT22;56729;52.036;5.332;2023-01-15T06:26:48;6.80;99.90
69533;DHT22;56729;52.036;5.332;2023-01-15T06:27:50;6.80;99.90
69533;DHT22;56729;52.036;5.332;2023-01-15T06:28:52;6.80;99.90
69533;DHT22;56729;52.036;5.332;2023-01-15T06:29:54;6.80;99.90
69533;DHT22;56729;52.036;5.332;2023-01-15T06:30:56;6.80;99.90
69533;DHT22;56729;52.036;5.332;2023-01-15T06:31:59;6.80;99.90
69533;DHT22;56729;52.036;5.332;2023-01-15T06:33:01;6.80;99.90
69533;DHT22;56729;52.036;5.332;2023-01-15T06:34:03;6.80;99.90
69533;DHT22;56729;52.036;5.332;2023-01-15T06:35:06;6.80;99.90
69533;DHT22;56729;52.036;5.332;2023-01-15T06:36:11;6.80;99.90
69533;DHT22;56729;52.036;5.332;2023-01-15T06:37:13;6.80;99.90
69533;DHT22;56729;52.036;5.332;2023-01-15T06:38:15;6.80;99.90
69533;DHT22;56729;52.036;5.332;2023-01-15T06:39:19;6.80;99.90
69533;DHT22;56729;52.036;5.332;2023-01-15T06:40:21;6.80;99.90
69533;DHT22;56729;52.036;5.332;2023-01-15T06:41:25;6.70;99.90
69533;DHT22;56729;52.036;5.332;2023-01-15T06:42:46;6.80;99.90
69533;DHT22;56729;52.036;5.332;2023-01-15T06:44:15;6.70;99.90
69533;DHT22;56729;52.036;5.332;2023-01-15T06:45:40;6.70;99.90
69533;DHT22;56729;52.036;5.332;2023-01-15T06:47:02;6.70;99.90
69533;DHT22;56729;52.036;5.332;2023-01-15T06:48:22;6.70;99.90
69533;DHT22;56729;52.036;5.332;2023-01-15T06:49:28;6.60;99.90
69533;DHT22;56729;52.036;5.332;2023-01-15T06:50:30;6.60;99.90
69533;DHT22;56729;52.036;5.332;2023-01-15T06:51:31;6.60;99.90
69533;DHT22;56729;52.036;5.332;2023-01-15T06:52:33;6.60;99.90
69533;DHT22;56729;52.036;5.332;2023-01-15T06:53:35;6.60;99.90
69533;DHT22;56729;52.036;5.332;2023-01-15T06:54:37;6.60;99.90
69533;DHT22;56729;52.036;5.332;2023-01-15T06:55:39;6.60;99.90
69533;DHT22;56729;52.036;5.332;2023-01-15T06:56:41;6.60;99.90
69533;DHT22;56729;52.036;5.332;2023-01-15T06:57:43;6.60;99.90
69533;DHT22;56729;52.036;5.332;2023-01-15T06:58:45;6.60;99.90
69533;DHT22;56729;52.036;5.332;2023-01-15T06:59:48;6.50;99.90
69533;DHT22;56729;52.036;5.332;2023-01-15T07:00:50;6.60;99.90
69533;DHT22;56729;52.036;5.332;2023-01-15T07:01:57;6.50;99.90
69533;DHT22;56729;52.036;5.332;2023-01-15T07:03:02;6.50;99.90
69533;DHT22;56729;52.036;5.332;2023-01-15T07:04:04;6.50;99.90
69533;DHT22;56729;52.036;5.332;2023-01-15T07:05:07;6.50;99.90
69533;DHT22;56729;52.036;5.332;2023-01-15T07:06:11;6.50;99.90
69533;DHT22;56729;52.036;5.332;2023-01-15T07:07:15;6.50;99.90
69533;DHT22;56729;52.036;5.332;2023-01-15T07:08:17;6.50;99.90
69533;DHT22;56729;52.036;5.332;2023-01-15T07:09:19;6.50;99.90
69533;DHT22;56729;52.036;5.332;2023-01-15T07:10:21;6.50;99.90
69533;DHT22;56729;52.036;5.332;2023-01-15T07:11:27;6.50;99.90
69533;DHT22;56729;52.036;5.332;2023-01-15T07:12:28;6.50;99.90
69533;DHT22;56729;52.036;5.332;2023-01-15T07:13:31;6.50;99.90
69533;DHT22;56729;52.036;5.332;2023-01-15T07:14:33;6.50;99.90